Albemarle, North Carolina
Current Conditions -  °F | °C
As of 7:15 AM on Wednesday 26 Nov 2014 (Local Time) from KVUJ Reporting Station
Light Rain Light Rain  
Wind Chill: 38°   Ceiling: 7000
Heat Index: 45°   Visibility: 10mi
Dew Point: 45°   Wind: 14mph
Humidity: 100%   Direction: 20°NNE
Pressure: 29.97"   Gusts: 25mph
Location:  35.35°N, 80.19°W
Report Text: KVUJ 261215Z AUTO 02012G22KT 10SM -RA SCT018 BKN070 OVC090 07/07 A2997 RMK AO2 P0004 T00700070
Loading
Personal Weather Stations






























Interactive Weather Map New forecast layout! Learn more

10-Day Weather Forecast

Advertisements
Track Severe Weather on mobile